sensor_id;sensor_type;location;lat;lon;timestamp;temperature;humidity
11284;DHT22;5698;47.332;11.180;2023-05-14T00:01:28;6.00;99.90
11284;DHT22;5698;47.332;11.180;2023-05-14T00:03:55;5.90;99.90
11284;DHT22;5698;47.332;11.180;2023-05-14T00:06:24;5.90;99.90
11284;DHT22;5698;47.332;11.180;2023-05-14T00:08:51;5.90;99.90
11284;DHT22;5698;47.332;11.180;2023-05-14T00:11:18;6.00;99.90
11284;DHT22;5698;47.332;11.180;2023-05-14T00:13:45;6.00;99.90
11284;DHT22;5698;47.332;11.180;2023-05-14T00:16:12;6.10;99.90
11284;DHT22;5698;47.332;11.180;2023-05-14T00:18:39;6.10;99.90
11284;DHT22;5698;47.332;11.180;2023-05-14T00:21:06;6.10;99.90
11284;DHT22;5698;47.332;11.180;2023-05-14T00:23:34;6.10;99.90
11284;DHT22;5698;47.332;11.180;2023-05-14T00:26:01;6.10;99.90
11284;DHT22;5698;47.332;11.180;2023-05-14T00:28:28;6.00;99.90
11284;DHT22;5698;47.332;11.180;2023-05-14T00:30:55;6.00;99.90
11284;DHT22;5698;47.332;11.180;2023-05-14T00:33:22;6.00;99.90
11284;DHT22;5698;47.332;11.180;2023-05-14T00:35:49;6.00;99.90
11284;DHT22;5698;47.332;11.180;2023-05-14T00:38:16;6.00;99.90
11284;DHT22;5698;47.332;11.180;2023-05-14T00:40:45;6.00;99.90
11284;DHT22;5698;47.332;11.180;2023-05-14T00:43:16;6.10;99.90
11284;DHT22;5698;47.332;11.180;2023-05-14T00:45:44;6.10;99.90
11284;DHT22;5698;47.332;11.180;2023-05-14T00:48:11;6.10;99.90
11284;DHT22;5698;47.332;11.180;2023-05-14T00:50:39;6.10;99.90
11284;DHT22;5698;47.332;11.180;2023-05-14T00:53:06;6.10;99.90
11284;DHT22;5698;47.332;11.180;2023-05-14T00:55:35;6.10;99.90
11284;DHT22;5698;47.332;11.180;2023-05-14T00:58:06;6.10;99.90
11284;DHT22;5698;47.332;11.180;2023-05-14T01:00:35;6.10;99.90
11284;DHT22;5698;47.332;11.180;2023-05-14T01:03:02;6.10;99.90
11284;DHT22;5698;47.332;11.180;2023-05-14T01:05:34;6.10;99.90
11284;DHT22;5698;47.332;11.180;2023-05-14T01:08:08;6.10;99.90
11284;DHT22;5698;47.332;11.180;2023-05-14T01:10:41;6.10;99.90
11284;DHT22;5698;47.332;11.180;2023-05-14T01:13:23;6.20;99.90
11284;DHT22;5698;47.332;11.180;2023-05-14T01:15:55;6.10;99.90
11284;DHT22;5698;47.332;11.180;2023-05-14T01:18:23;6.00;99.90
11284;DHT22;5698;47.332;11.180;2023-05-14T01:20:50;6.00;99.90
11284;DHT22;5698;47.332;11.180;2023-05-14T01:23:19;5.90;99.90
11284;DHT22;5698;47.332;11.180;2023-05-14T01:25:46;5.80;99.90
11284;DHT22;5698;47.332;11.180;2023-05-14T01:28:16;5.60;99.90
11284;DHT22;5698;47.332;11.180;2023-05-14T01:30:47;5.50;99.90
11284;DHT22;5698;47.332;11.180;2023-05-14T01:33:16;5.50;99.90
11284;DHT22;5698;47.332;11.180;2023-05-14T01:35:44;5.50;99.90
11284;DHT22;5698;47.332;11.180;2023-05-14T01:38:13;5.60;99.90
11284;DHT22;5698;47.332;11.180;2023-05-14T01:40:43;5.50;99.90
11284;DHT22;5698;47.332;11.180;2023-05-14T01:43:11;5.50;99.90
11284;DHT22;5698;47.332;11.180;2023-05-14T01:45:38;5.60;99.90
11284;DHT22;5698;47.332;11.180;2023-05-14T01:48:05;5.70;99.90
11284;DHT22;5698;47.332;11.180;2023-05-14T01:50:32;5.70;99.90
11284;DHT22;5698;47.332;11.180;2023-05-14T01:52:59;5.80;99.90
11284;DHT22;5698;47.332;11.180;2023-05-14T01:55:26;5.80;99.90
11284;DHT22;5698;47.332;11.180;2023-05-14T01:57:54;5.90;99.90
11284;DHT22;5698;47.332;11.180;2023-05-14T02:00:23;5.90;99.90
11284;DHT22;5698;47.332;11.180;2023-05-14T02:02:50;5.90;99.90
11284;DHT22;5698;47.332;11.180;2023-05-14T02:05:17;5.90;99.90
11284;DHT22;5698;47.332;11.180;2023-05-14T02:07:44;5.90;99.90
11284;DHT22;5698;47.332;11.180;2023-05-14T02:10:11;6.00;99.90
11284;DHT22;5698;47.332;11.180;2023-05-14T02:12:38;6.00;99.90
11284;DHT22;5698;47.332;11.180;2023-05-14T02:15:07;6.00;99.90
11284;DHT22;5698;47.332;11.180;2023-05-14T02:17:35;6.00;99.90
11284;DHT22;5698;47.332;11.180;2023-05-14T02:20:03;6.00;99.90
11284;DHT22;5698;47.332;11.180;2023-05-14T02:22:30;5.90;99.90
11284;DHT22;5698;47.332;11.180;2023-05-14T02:24:57;6.00;99.90
11284;DHT22;5698;47.332;11.180;2023-05-14T02:27:24;5.90;99.90
11284;DHT22;5698;47.332;11.180;2023-05-14T02:29:51;6.00;99.90
11284;DHT22;5698;47.332;11.180;2023-05-14T02:32:19;5.90;99.90
11284;DHT22;5698;47.332;11.180;2023-05-14T02:34:46;5.90;99.90
11284;DHT22;5698;47.332;11.180;2023-05-14T02:37:13;5.90;99.90
11284;DHT22;5698;47.332;11.180;2023-05-14T02:39:40;5.90;99.90
11284;DHT22;5698;47.332;11.180;2023-05-14T02:42:07;5.80;99.90
11284;DHT22;5698;47.332;11.180;2023-05-14T02:44:34;5.80;99.90
11284;DHT22;5698;47.332;11.180;2023-05-14T02:47:01;5.80;99.90
11284;DHT22;5698;47.332;11.180;2023-05-14T02:49:29;5.80;99.90
11284;DHT22;5698;47.332;11.180;2023-05-14T02:51:56;5.70;99.90
11284;DHT22;5698;47.332;11.180;2023-05-14T02:54:25;5.70;99.90
11284;DHT22;5698;47.332;11.180;2023-05-14T02:56:52;5.60;99.90
11284;DHT22;5698;47.332;11.180;2023-05-14T02:59:19;5.60;99.90
11284;DHT22;5698;47.332;11.180;2023-05-14T03:01:46;5.50;99.90
11284;DHT22;5698;47.332;11.180;2023-05-14T03:04:13;5.60;99.90
11284;DHT22;5698;47.332;11.180;2023-05-14T03:06:41;5.60;99.90
11284;DHT22;5698;47.332;11.180;2023-05-14T03:09:08;5.60;99.90
11284;DHT22;5698;47.332;11.180;2023-05-14T03:11:35;5.60;99.90
11284;DHT22;5698;47.332;11.180;2023-05-14T03:14:02;5.60;99.90
11284;DHT22;5698;47.332;11.180;2023-05-14T03:16:29;5.60;99.90
11284;DHT22;5698;47.332;11.180;2023-05-14T03:18:56;5.50;99.90
11284;DHT22;5698;47.332;11.180;2023-05-14T03:21:23;5.40;99.90
11284;DHT22;5698;47.332;11.180;2023-05-14T03:23:52;5.30;99.90
11284;DHT22;5698;47.332;11.180;2023-05-14T03:26:19;5.30;99.90
11284;DHT22;5698;47.332;11.180;2023-05-14T03:28:47;5.30;99.90
11284;DHT22;5698;47.332;11.180;2023-05-14T03:31:14;5.30;99.90
11284;DHT22;5698;47.332;11.180;2023-05-14T03:33:41;5.30;99.90
11284;DHT22;5698;47.332;11.180;2023-05-14T03:36:08;5.40;99.90
11284;DHT22;5698;47.332;11.180;2023-05-14T03:38:35;5.40;99.90
11284;DHT22;5698;47.332;11.180;2023-05-14T03:41:04;5.40;99.90
11284;DHT22;5698;47.332;11.180;2023-05-14T03:43:30;5.30;99.90
11284;DHT22;5698;47.332;11.180;2023-05-14T03:45:57;5.30;99.90
11284;DHT22;5698;47.332;11.180;2023-05-14T03:48:24;5.30;99.90
11284;DHT22;5698;47.332;11.180;2023-05-14T03:50:51;5.30;99.90
11284;DHT22;5698;47.332;11.180;2023-05-14T03:53:18;5.20;99.90
11284;DHT22;5698;47.332;11.180;2023-05-14T03:55:45;5.10;99.90
11284;DHT22;5698;47.332;11.180;2023-05-14T03:58:13;5.10;99.90
11284;DHT22;5698;47.332;11.180;2023-05-14T04:00:41;5.10;99.90
11284;DHT22;5698;47.332;11.180;2023-05-14T04:03:08;5.10;99.90
11284;DHT22;5698;47.332;11.180;2023-05-14T04:05:35;5.10;99.90
11284;DHT22;5698;47.332;11.180;2023-05-14T04:08:02;5.10;99.90
11284;DHT22;5698;47.332;11.180;2023-05-14T04:10:30;5.10;99.90
11284;DHT22;5698;47.332;11.180;2023-05-14T04:12:57;5.10;99.90
11284;DHT22;5698;47.332;11.180;2023-05-14T04:15:26;5.10;99.90
11284;DHT22;5698;47.332;11.180;2023-05-14T04:17:53;5.20;99.90
11284;DHT22;5698;47.332;11.180;2023-05-14T04:20:20;5.20;99.90
11284;DHT22;5698;47.332;11.180;2023-05-14T04:22:47;5.30;99.90
11284;DHT22;5698;47.332;11.180;2023-05-14T04:25:14;5.30;99.90
11284;DHT22;5698;47.332;11.180;2023-05-14T04:27:42;5.40;99.90
11284;DHT22;5698;47.332;11.180;2023-05-14T04:30:10;5.40;99.90
11284;DHT22;5698;47.332;11.180;2023-05-14T04:32:38;5.50;99.90
11284;DHT22;5698;47.332;11.180;2023-05-14T04:35:07;5.60;99.90
11284;DHT22;5698;47.332;11.180;2023-05-14T04:37:34;5.60;99.90
11284;DHT22;5698;47.332;11.180;2023-05-14T04:40:02;5.60;99.90
11284;DHT22;5698;47.332;11.180;2023-05-14T04:42:30;5.70;99.90
11284;DHT22;5698;47.332;11.180;2023-05-14T04:44:57;5.70;99.90
11284;DHT22;5698;47.332;11.180;2023-05-14T04:47:24;5.80;99.90
11284;DHT22;5698;47.332;11.180;2023-05-14T04:49:53;5.80;99.90
11284;DHT22;5698;47.332;11.180;2023-05-14T04:52:20;5.80;99.90
11284;DHT22;5698;47.332;11.180;2023-05-14T04:54:47;5.80;99.90
11284;DHT22;5698;47.332;11.180;2023-05-14T04:57:13;5.80;99.90
11284;DHT22;5698;47.332;11.180;2023-05-14T04:59:41;5.70;99.90
11284;DHT22;5698;47.332;11.180;2023-05-14T05:02:08;5.70;99.90
11284;DHT22;5698;47.332;11.180;2023-05-14T05:04:35;5.70;99.90
11284;DHT22;5698;47.332;11.180;2023-05-14T05:07:03;5.70;99.90
11284;DHT22;5698;47.332;11.180;2023-05-14T05:09:31;5.80;99.90
11284;DHT22;5698;47.332;11.180;2023-05-14T05:11:58;5.80;99.90
11284;DHT22;5698;47.332;11.180;2023-05-14T05:14:26;5.90;99.90
11284;DHT22;5698;47.332;11.180;2023-05-14T05:16:53;5.90;99.90
11284;DHT22;5698;47.332;11.180;2023-05-14T05:19:20;5.90;99.90
11284;DHT22;5698;47.332;11.180;2023-05-14T05:21:47;6.00;99.90
11284;DHT22;5698;47.332;11.180;2023-05-14T05:24:15;6.00;99.90
11284;DHT22;5698;47.332;11.180;2023-05-14T05:26:42;6.00;99.90
11284;DHT22;5698;47.332;11.180;2023-05-14T05:29:09;6.10;99.90
11284;DHT22;5698;47.332;11.180;2023-05-14T05:31:36;6.10;99.90
11284;DHT22;5698;47.332;11.180;2023-05-14T05:34:03;6.20;99.90
11284;DHT22;5698;47.332;11.180;2023-05-14T05:36:30;6.30;99.90
11284;DHT22;5698;47.332;11.180;2023-05-14T05:38:57;6.30;99.90
11284;DHT22;5698;47.332;11.180;2023-05-14T05:41:26;6.30;99.90
11284;DHT22;5698;47.332;11.180;2023-05-14T05:43:54;6.30;99.90
11284;DHT22;5698;47.332;11.180;2023-05-14T05:46:21;6.30;99.90
11284;DHT22;5698;47.332;11.180;2023-05-14T05:48:48;6.30;99.90
11284;DHT22;5698;47.332;11.180;2023-05-14T05:51:15;6.30;99.90
11284;DHT22;5698;47.332;11.180;2023-05-14T05:53:42;6.20;99.90
11284;DHT22;5698;47.332;11.180;2023-05-14T05:56:09;6.20;99.90
11284;DHT22;5698;47.332;11.180;2023-05-14T05:58:37;6.20;99.90
11284;DHT22;5698;47.332;11.180;2023-05-14T06:01:04;6.20;99.90
11284;DHT22;5698;47.332;11.180;2023-05-14T06:03:31;6.20;99.90
11284;DHT22;5698;47.332;11.180;2023-05-14T06:05:58;6.20;99.90
11284;DHT22;5698;47.332;11.180;2023-05-14T06:08:25;6.20;99.90
11284;DHT22;5698;47.332;11.180;2023-05-14T06:10:52;6.30;99.90
11284;DHT22;5698;47.332;11.180;2023-05-14T06:13:19;6.40;99.90
11284;DHT22;5698;47.332;11.180;2023-05-14T06:15:47;6.50;99.90
11284;DHT22;5698;47.332;11.180;2023-05-14T06:18:14;6.60;99.90
11284;DHT22;5698;47.332;11.180;2023-05-14T06:20:41;6.60;99.90
11284;DHT22;5698;47.332;11.180;2023-05-14T06:23:08;6.70;99.90
11284;DHT22;5698;47.332;11.180;2023-05-14T06:25:36;6.70;99.90
11284;DHT22;5698;47.332;11.180;2023-05-14T06:28:04;6.80;99.90
11284;DHT22;5698;47.332;11.180;2023-05-14T06:30:31;6.80;99.90
11284;DHT22;5698;47.332;11.180;2023-05-14T06:32:59;6.90;99.90
11284;DHT22;5698;47.332;11.180;2023-05-14T06:35:26;7.00;99.90
11284;DHT22;5698;47.332;11.180;2023-05-14T06:37:53;7.00;99.90
11284;DHT22;5698;47.332;11.180;2023-05-14T06:40:20;7.10;99.90
11284;DHT22;5698;47.332;11.180;2023-05-14T06:42:47;7.20;99.90
11284;DHT22;5698;47.332;11.180;2023-05-14T06:45:14;7.20;99.90
11284;DHT22;5698;47.332;11.180;2023-05-14T06:47:41;7.30;99.90
11284;DHT22;5698;47.332;11.180;2023-05-14T06:50:10;7.40;99.90
11284;DHT22;5698;47.332;11.180;2023-05-14T06:52:37;7.40;99.90
11284;DHT22;5698;47.332;11.180;2023-05-14T06:55:05;7.50;99.90
11284;DHT22;5698;47.332;11.180;2023-05-14T06:57:32;7.60;99.90
11284;DHT22;5698;47.332;11.180;2023-05-14T06:59:59;7.70;99.90
11284;DHT22;5698;47.332;11.180;2023-05-14T07:02:26;7.80;99.90
11284;DHT22;5698;47.332;11.180;2023-05-14T07:04:53;7.90;99.90
11284;DHT22;5698;47.332;11.180;2023-05-14T07:07:22;7.90;99.90
11284;DHT22;5698;47.332;11.180;2023-05-14T07:09:48;8.00;99.90
11284;DHT22;5698;47.332;11.180;2023-05-14T07:12:15;8.10;99.90
11284;DHT22;5698;47.332;11.180;2023-05-14T07:14:42;8.10;99.90
11284;DHT22;5698;47.332;11.180;2023-05-14T07:17:09;8.20;99.90
11284;DHT22;5698;47.332;11.180;2023-05-14T07:19:37;8.20;99.90
11284;DHT22;5698;47.332;11.180;2023-05-14T07:22:04;8.20;99.90
11284;DHT22;5698;47.332;11.180;2023-05-14T07:24:32;8.20;99.90
11284;DHT22;5698;47.332;11.180;2023-05-14T07:26:59;8.20;99.90
11284;DHT22;5698;47.332;11.180;2023-05-14T07:29:26;8.30;99.90
11284;DHT22;5698;47.332;11.180;2023-05-14T07:31:54;8.50;99.90
11284;DHT22;5698;47.332;11.180;2023-05-14T07:34:21;8.60;99.90
11284;DHT22;5698;47.332;11.180;2023-05-14T07:36:48;8.90;99.90
11284;DHT22;5698;47.332;11.180;2023-05-14T07:39:15;9.00;99.90
11284;DHT22;5698;47.332;11.180;2023-05-14T07:41:44;9.20;99.90
11284;DHT22;5698;47.332;11.180;2023-05-14T07:44:11;9.30;99.90
11284;DHT22;5698;47.332;11.180;2023-05-14T07:46:38;9.40;99.90
11284;DHT22;5698;47.332;11.180;2023-05-14T07:49:05;9.60;99.90
11284;DHT22;5698;47.332;11.180;2023-05-14T07:51:32;9.60;99.90
11284;DHT22;5698;47.332;11.180;2023-05-14T07:53:59;9.60;99.90
11284;DHT22;5698;47.332;11.180;2023-05-14T07:56:26;9.70;99.90
11284;DHT22;5698;47.332;11.180;2023-05-14T07:58:54;9.80;99.90
11284;DHT22;5698;47.332;11.180;2023-05-14T08:01:21;9.90;99.90
11284;DHT22;5698;47.332;11.180;2023-05-14T08:03:48;10.10;99.90
11284;DHT22;5698;47.332;11.180;2023-05-14T08:06:15;10.30;99.90
11284;DHT22;5698;47.332;11.180;2023-05-14T08:08:42;10.40;99.90
11284;DHT22;5698;47.332;11.180;2023-05-14T08:11:09;10.50;99.90
11284;DHT22;5698;47.332;11.180;2023-05-14T08:13:36;10.70;99.90
11284;DHT22;5698;47.332;11.180;2023-05-14T08:16:05;10.80;99.90
11284;DHT22;5698;47.332;11.180;2023-05-14T08:18:32;10.90;99.90
11284;DHT22;5698;47.332;11.180;2023-05-14T08:20:59;11.00;99.90
11284;DHT22;5698;47.332;11.180;2023-05-14T08:23:27;11.10;99.90
11284;DHT22;5698;47.332;11.180;2023-05-14T08:25:54;11.10;99.90
11284;DHT22;5698;47.332;11.180;2023-05-14T08:28:20;11.20;99.90
11284;DHT22;5698;47.332;11.180;2023-05-14T08:30:48;11.30;99.90
11284;DHT22;5698;47.332;11.180;2023-05-14T08:33:16;11.30;99.90
11284;DHT22;5698;47.332;11.180;2023-05-14T08:35:43;11.50;99.90
11284;DHT22;5698;47.332;11.180;2023-05-14T08:38:10;11.60;99.90
11284;DHT22;5698;47.332;11.180;2023-05-14T08:40:37;11.80;99.90
11284;DHT22;5698;47.332;11.180;2023-05-14T08:43:05;12.00;99.90
11284;DHT22;5698;47.332;11.180;2023-05-14T08:45:34;12.20;99.90
11284;DHT22;5698;47.332;11.180;2023-05-14T08:48:03;12.40;99.90
11284;DHT22;5698;47.332;11.180;2023-05-14T08:50:35;12.50;99.90
11284;DHT22;5698;47.332;11.180;2023-05-14T08:53:02;12.50;99.90
11284;DHT22;5698;47.332;11.180;2023-05-14T08:55:30;12.70;99.90
11284;DHT22;5698;47.332;11.180;2023-05-14T08:57:58;12.80;99.90
11284;DHT22;5698;47.332;11.180;2023-05-14T09:00:25;12.80;99.90
11284;DHT22;5698;47.332;11.180;2023-05-14T09:02:53;12.90;99.90
11284;DHT22;5698;47.332;11.180;2023-05-14T09:05:21;13.00;99.90
11284;DHT22;5698;47.332;11.180;2023-05-14T09:07:50;13.00;99.90
11284;DHT22;5698;47.332;11.180;2023-05-14T09:10:17;12.90;99.90
11284;DHT22;5698;47.332;11.180;2023-05-14T09:12:45;13.00;99.90
11284;DHT22;5698;47.332;11.180;2023-05-14T09:15:12;13.00;99.90
11284;DHT22;5698;47.332;11.180;2023-05-14T09:17:39;13.00;99.90
11284;DHT22;5698;47.332;11.180;2023-05-14T09:20:08;13.10;99.90
11284;DHT22;5698;47.332;11.180;2023-05-14T09:22:37;13.20;99.90
11284;DHT22;5698;47.332;11.180;2023-05-14T09:25:07;13.40;99.90
11284;DHT22;5698;47.332;11.180;2023-05-14T09:27:36;13.60;99.90
11284;DHT22;5698;47.332;11.180;2023-05-14T09:30:07;14.00;99.90
11284;DHT22;5698;47.332;11.180;2023-05-14T09:32:36;14.30;99.90
11284;DHT22;5698;47.332;11.180;2023-05-14T09:35:15;14.60;99.90
11284;DHT22;5698;47.332;11.180;2023-05-14T09:37:43;14.80;99.90
11284;DHT22;5698;47.332;11.180;2023-05-14T09:40:13;14.90;99.90
11284;DHT22;5698;47.332;11.180;2023-05-14T09:42:40;14.90;99.90
11284;DHT22;5698;47.332;11.180;2023-05-14T09:45:08;15.00;99.90
11284;DHT22;5698;47.332;11.180;2023-05-14T09:47:35;15.20;99.90
11284;DHT22;5698;47.332;11.180;2023-05-14T09:50:03;15.30;99.90
11284;DHT22;5698;47.332;11.180;2023-05-14T09:52:30;15.50;99.90
11284;DHT22;5698;47.332;11.180;2023-05-14T09:54:57;15.50;99.90
11284;DHT22;5698;47.332;11.180;2023-05-14T09:57:27;15.30;99.90
11284;DHT22;5698;47.332;11.180;2023-05-14T09:59:54;15.20;99.90
11284;DHT22;5698;47.332;11.180;2023-05-14T10:02:23;15.10;99.90
11284;DHT22;5698;47.332;11.180;2023-05-14T10:04:53;15.20;99.90
11284;DHT22;5698;47.332;11.180;2023-05-14T10:07:26;15.30;99.90
11284;DHT22;5698;47.332;11.180;2023-05-14T10:09:58;15.40;99.90
11284;DHT22;5698;47.332;11.180;2023-05-14T10:12:29;15.40;99.90
11284;DHT22;5698;47.332;11.180;2023-05-14T10:15:01;15.40;99.90
11284;DHT22;5698;47.332;11.180;2023-05-14T10:17:31;15.50;99.90
11284;DHT22;5698;47.332;11.180;2023-05-14T10:20:01;15.60;99.90
11284;DHT22;5698;47.332;11.180;2023-05-14T10:22:33;15.70;99.90
11284;DHT22;5698;47.332;11.180;2023-05-14T10:25:01;15.90;99.90
11284;DHT22;5698;47.332;11.180;2023-05-14T10:27:30;15.90;99.90
11284;DHT22;5698;47.332;11.180;2023-05-14T10:29:57;15.90;99.90
11284;DHT22;5698;47.332;11.180;2023-05-14T10:32:26;15.90;99.80
11284;DHT22;5698;47.332;11.180;2023-05-14T10:34:57;15.80;99.90
11284;DHT22;5698;47.332;11.180;2023-05-14T10:37:27;15.80;99.90
11284;DHT22;5698;47.332;11.180;2023-05-14T10:39:58;15.70;99.70
11284;DHT22;5698;47.332;11.180;2023-05-14T10:42:26;15.50;99.90
11284;DHT22;5698;47.332;11.180;2023-05-14T10:44:58;15.30;99.90
11284;DHT22;5698;47.332;11.180;2023-05-14T10:47:26;15.10;99.90
11284;DHT22;5698;47.332;11.180;2023-05-14T10:49:55;15.00;99.90
11284;DHT22;5698;47.332;11.180;2023-05-14T10:52:23;14.80;99.90
11284;DHT22;5698;47.332;11.180;2023-05-14T10:54:51;14.50;99.90
11284;DHT22;5698;47.332;11.180;2023-05-14T10:57:19;14.50;99.90
11284;DHT22;5698;47.332;11.180;2023-05-14T10:59:48;14.60;99.90
11284;DHT22;5698;47.332;11.180;2023-05-14T11:02:23;14.60;99.90
11284;DHT22;5698;47.332;11.180;2023-05-14T11:04:58;14.60;99.90
11284;DHT22;5698;47.332;11.180;2023-05-14T11:07:29;14.40;99.90
11284;DHT22;5698;47.332;11.180;2023-05-14T11:09:59;14.20;99.90
11284;DHT22;5698;47.332;11.180;2023-05-14T11:12:27;14.20;99.90
11284;DHT22;5698;47.332;11.180;2023-05-14T11:14:56;14.10;99.90
11284;DHT22;5698;47.332;11.180;2023-05-14T11:17:25;14.20;99.90
11284;DHT22;5698;47.332;11.180;2023-05-14T11:19:53;14.40;99.90
11284;DHT22;5698;47.332;11.180;2023-05-14T11:22:20;14.30;99.90
11284;DHT22;5698;47.332;11.180;2023-05-14T11:24:47;14.10;99.90
11284;DHT22;5698;47.332;11.180;2023-05-14T11:27:14;14.10;99.90
11284;DHT22;5698;47.332;11.180;2023-05-14T11:29:43;14.10;99.90
11284;DHT22;5698;47.332;11.180;2023-05-14T11:32:11;14.00;99.90
11284;DHT22;5698;47.332;11.180;2023-05-14T11:34:40;13.90;99.90
11284;DHT22;5698;47.332;11.180;2023-05-14T11:37:10;13.80;99.90
11284;DHT22;5698;47.332;11.180;2023-05-14T11:39:38;13.50;99.90
11284;DHT22;5698;47.332;11.180;2023-05-14T11:42:10;13.30;99.90
11284;DHT22;5698;47.332;11.180;2023-05-14T11:44:39;13.00;99.90
11284;DHT22;5698;47.332;11.180;2023-05-14T11:47:09;12.80;99.90
11284;DHT22;5698;47.332;11.180;2023-05-14T11:49:36;12.60;99.90
11284;DHT22;5698;47.332;11.180;2023-05-14T11:52:06;12.50;99.90
11284;DHT22;5698;47.332;11.180;2023-05-14T11:54:34;12.20;99.90
11284;DHT22;5698;47.332;11.180;2023-05-14T11:57:07;12.00;99.90
11284;DHT22;5698;47.332;11.180;2023-05-14T11:59:35;11.90;99.90
11284;DHT22;5698;47.332;11.180;2023-05-14T12:02:02;11.90;99.90
11284;DHT22;5698;47.332;11.180;2023-05-14T12:04:30;11.90;99.90
11284;DHT22;5698;47.332;11.180;2023-05-14T12:06:58;12.00;99.90
11284;DHT22;5698;47.332;11.180;2023-05-14T12:09:27;12.10;99.90
11284;DHT22;5698;47.332;11.180;2023-05-14T12:11:54;12.20;99.90
11284;DHT22;5698;47.332;11.180;2023-05-14T12:14:22;12.30;99.90
11284;DHT22;5698;47.332;11.180;2023-05-14T12:16:50;12.30;99.90
11284;DHT22;5698;47.332;11.180;2023-05-14T12:19:18;12.20;99.90
11284;DHT22;5698;47.332;11.180;2023-05-14T12:21:46;12.20;99.90
11284;DHT22;5698;47.332;11.180;2023-05-14T12:24:17;12.30;99.90
11284;DHT22;5698;47.332;11.180;2023-05-14T12:26:46;12.30;99.90
11284;DHT22;5698;47.332;11.180;2023-05-14T12:29:14;12.30;99.90
11284;DHT22;5698;47.332;11.180;2023-05-14T12:31:45;12.30;99.90
11284;DHT22;5698;47.332;11.180;2023-05-14T12:34:13;12.30;99.90
11284;DHT22;5698;47.332;11.180;2023-05-14T12:36:40;12.30;99.90
11284;DHT22;5698;47.332;11.180;2023-05-14T12:39:08;12.10;99.90
11284;DHT22;5698;47.332;11.180;2023-05-14T12:41:35;12.00;99.90
11284;DHT22;5698;47.332;11.180;2023-05-14T12:44:04;12.00;99.90
11284;DHT22;5698;47.332;11.180;2023-05-14T12:46:32;12.10;99.90
11284;DHT22;5698;47.332;11.180;2023-05-14T12:48:59;12.20;99.90
11284;DHT22;5698;47.332;11.180;2023-05-14T12:51:27;12.30;99.90
11284;DHT22;5698;47.332;11.180;2023-05-14T12:53:54;12.30;99.90
11284;DHT22;5698;47.332;11.180;2023-05-14T12:56:21;12.30;99.90
11284;DHT22;5698;47.332;11.180;2023-05-14T12:58:53;12.30;99.90
11284;DHT22;5698;47.332;11.180;2023-05-14T13:01:22;12.40;99.90
11284;DHT22;5698;47.332;11.180;2023-05-14T13:03:49;12.30;99.90
11284;DHT22;5698;47.332;11.180;2023-05-14T13:06:16;12.00;99.90
11284;DHT22;5698;47.332;11.180;2023-05-14T13:08:43;11.90;99.90
11284;DHT22;5698;47.332;11.180;2023-05-14T13:11:10;11.70;99.90
11284;DHT22;5698;47.332;11.180;2023-05-14T13:13:37;11.70;99.90
11284;DHT22;5698;47.332;11.180;2023-05-14T13:16:05;11.70;99.90
11284;DHT22;5698;47.332;11.180;2023-05-14T13:18:33;11.70;99.90
11284;DHT22;5698;47.332;11.180;2023-05-14T13:21:00;11.70;99.90
11284;DHT22;5698;47.332;11.180;2023-05-14T13:23:30;11.70;99.90
11284;DHT22;5698;47.332;11.180;2023-05-14T13:25:58;11.60;99.90
11284;DHT22;5698;47.332;11.180;2023-05-14T13:28:25;11.50;99.90
11284;DHT22;5698;47.332;11.180;2023-05-14T13:31:04;11.40;99.90
11284;DHT22;5698;47.332;11.180;2023-05-14T13:33:34;11.30;99.90
11284;DHT22;5698;47.332;11.180;2023-05-14T13:36:01;11.30;99.90
11284;DHT22;5698;47.332;11.180;2023-05-14T13:38:28;11.20;99.90
11284;DHT22;5698;47.332;11.180;2023-05-14T13:40:56;11.10;99.90
11284;DHT22;5698;47.332;11.180;2023-05-14T13:43:27;11.10;99.90
11284;DHT22;5698;47.332;11.180;2023-05-14T13:45:54;11.20;99.90
11284;DHT22;5698;47.332;11.180;2023-05-14T13:48:22;11.20;99.90
11284;DHT22;5698;47.332;11.180;2023-05-14T13:50:50;11.10;99.90
11284;DHT22;5698;47.332;11.180;2023-05-14T13:53:18;11.00;99.90
11284;DHT22;5698;47.332;11.180;2023-05-14T13:55:45;10.90;99.90
11284;DHT22;5698;47.332;11.180;2023-05-14T13:58:12;10.80;99.90
11284;DHT22;5698;47.332;11.180;2023-05-14T14:00:39;10.80;99.90
11284;DHT22;5698;47.332;11.180;2023-05-14T14:03:06;10.90;99.90
11284;DHT22;5698;47.332;11.180;2023-05-14T14:05:34;10.90;99.90
11284;DHT22;5698;47.332;11.180;2023-05-14T14:08:02;11.00;99.90
11284;DHT22;5698;47.332;11.180;2023-05-14T14:10:30;11.00;99.90
11284;DHT22;5698;47.332;11.180;2023-05-14T14:12:57;11.10;99.90
11284;DHT22;5698;47.332;11.180;2023-05-14T14:15:23;11.10;99.90
11284;DHT22;5698;47.332;11.180;2023-05-14T14:17:50;11.20;99.90
11284;DHT22;5698;47.332;11.180;2023-05-14T14:20:17;11.20;99.90
11284;DHT22;5698;47.332;11.180;2023-05-14T14:22:45;11.20;99.90
11284;DHT22;5698;47.332;11.180;2023-05-14T14:25:13;11.20;99.90
11284;DHT22;5698;47.332;11.180;2023-05-14T14:27:40;11.10;99.90
11284;DHT22;5698;47.332;11.180;2023-05-14T14:30:08;11.10;99.90
11284;DHT22;5698;47.332;11.180;2023-05-14T14:32:40;11.10;99.90
11284;DHT22;5698;47.332;11.180;2023-05-14T14:35:09;11.00;99.90
11284;DHT22;5698;47.332;11.180;2023-05-14T14:37:36;11.00;99.90
11284;DHT22;5698;47.332;11.180;2023-05-14T14:40:04;10.90;99.90
11284;DHT22;5698;47.332;11.180;2023-05-14T14:42:34;10.80;99.90
11284;DHT22;5698;47.332;11.180;2023-05-14T14:45:02;10.70;99.90
11284;DHT22;5698;47.332;11.180;2023-05-14T14:47:29;10.70;99.90
11284;DHT22;5698;47.332;11.180;2023-05-14T14:49:56;10.60;99.90
11284;DHT22;5698;47.332;11.180;2023-05-14T14:52:23;10.60;99.90
11284;DHT22;5698;47.332;11.180;2023-05-14T14:54:51;10.50;99.90
11284;DHT22;5698;47.332;11.180;2023-05-14T14:57:18;10.40;99.90
11284;DHT22;5698;47.332;11.180;2023-05-14T14:59:46;10.40;99.90
11284;DHT22;5698;47.332;11.180;2023-05-14T15:02:13;10.40;99.90
11284;DHT22;5698;47.332;11.180;2023-05-14T15:04:40;10.40;99.90
11284;DHT22;5698;47.332;11.180;2023-05-14T15:07:08;10.40;99.90
11284;DHT22;5698;47.332;11.180;2023-05-14T15:09:35;10.40;99.90
11284;DHT22;5698;47.332;11.180;2023-05-14T15:12:02;10.40;99.90
11284;DHT22;5698;47.332;11.180;2023-05-14T15:14:29;10.40;99.90
11284;DHT22;5698;47.332;11.180;2023-05-14T15:16:58;10.40;99.90
11284;DHT22;5698;47.332;11.180;2023-05-14T15:19:25;10.40;99.90
11284;DHT22;5698;47.332;11.180;2023-05-14T15:21:52;10.40;99.90
11284;DHT22;5698;47.332;11.180;2023-05-14T15:24:19;10.40;99.90
11284;DHT22;5698;47.332;11.180;2023-05-14T15:26:48;10.40;99.90
11284;DHT22;5698;47.332;11.180;2023-05-14T15:29:15;10.40;99.90
11284;DHT22;5698;47.332;11.180;2023-05-14T15:31:43;10.40;99.90
11284;DHT22;5698;47.332;11.180;2023-05-14T15:34:12;10.50;99.90
11284;DHT22;5698;47.332;11.180;2023-05-14T15:36:39;10.50;99.90
11284;DHT22;5698;47.332;11.180;2023-05-14T15:39:06;10.50;99.90
11284;DHT22;5698;47.332;11.180;2023-05-14T15:41:35;10.50;99.90